Time;durP1;ratioP1;P1;durP2;ratioP2;P2;SDS_P1;SDS_P2;PMS_P1;PMS_P2;Temp;Humidity;BMP_temperature;BMP_pressure;BME280_temperature;BME280_humidity;BME280_pressure;Samples;Min_cycle;Max_cycle;Signal;HPM_P1;HPM_P2
2023/08/31 00:02:24;;;;;;;0.10;0.10;;;;;;;14.04;84.59;99686.13;4988135;28;20053;-75
2023/08/31 00:04:52;;;;;;;0.15;0.15;;;;;;;14.03;84.56;99683.72;5002701;28;20053;-74
2023/08/31 00:07:18;;;;;;;0.10;0.10;;;;;;;14.02;84.54;99682.06;5004453;28;20620;-74
2023/08/31 00:09:44;;;;;;;0.10;0.10;;;;;;;14.00;84.58;99690.63;5019395;28;20074;-72
2023/08/31 00:12:12;;;;;;;0.10;0.10;;;;;;;14.02;84.92;99688.38;5003671;28;20157;-71
2023/08/31 00:14:39;;;;;;;0.10;0.10;;;;;;;14.01;84.94;99689.50;4969330;28;20309;-73
2023/08/31 00:17:05;;;;;;;0.10;0.10;;;;;;;13.98;84.91;99681.06;5003605;28;20536;-73
2023/08/31 00:19:31;;;;;;;0.10;0.10;;;;;;;13.99;84.96;99677.19;5004591;28;20112;-72
2023/08/31 00:21:57;;;;;;;0.15;0.15;;;;;;;13.99;85.00;99678.00;5006457;28;20050;-74
2023/08/31 00:24:29;;;;;;;0.10;0.10;;;;;;;14.01;85.22;99681.25;5004875;28;20088;-74
2023/08/31 00:26:55;;;;;;;0.10;0.10;;;;;;;14.04;85.32;99679.84;5009812;28;20050;-74
2023/08/31 00:29:25;;;;;;;0.10;0.10;;;;;;;14.06;85.15;99666.59;5008606;28;20081;-73
2023/08/31 00:31:53;;;;;;;0.10;0.10;;;;;;;14.12;85.11;99670.09;4990250;28;20526;-75
2023/08/31 00:34:19;;;;;;;0.10;0.10;;;;;;;14.15;85.23;99674.97;5007640;28;20050;-74
2023/08/31 00:36:45;;;;;;;0.10;0.10;;;;;;;14.19;84.99;99681.50;5008992;28;20144;-74
2023/08/31 00:39:11;;;;;;;0.10;0.10;;;;;;;14.20;84.47;99690.56;4987668;28;20616;-73
2023/08/31 00:41:39;;;;;;;0.15;0.15;;;;;;;14.21;84.57;99684.78;5001474;28;20045;-75
2023/08/31 00:44:05;;;;;;;0.10;0.10;;;;;;;14.21;84.83;99689.44;5004970;28;20128;-74
2023/08/31 00:46:34;;;;;;;0.13;0.13;;;;;;;14.20;84.47;99691.38;5006480;28;20524;-74
2023/08/31 00:49:03;;;;;;;0.20;0.20;;;;;;;14.14;84.71;99693.41;5006642;28;20057;-74
2023/08/31 00:51:30;;;;;;;0.20;0.20;;;;;;;14.15;84.96;99699.72;5006371;28;20056;-74
2023/08/31 00:53:58;;;;;;;0.10;0.10;;;;;;;14.09;85.62;99707.22;5005508;28;20038;-74
2023/08/31 00:56:26;;;;;;;0.10;0.10;;;;;;;14.06;85.48;99704.28;5006304;28;20041;-75
2023/08/31 00:58:54;;;;;;;0.20;0.20;;;;;;;14.04;85.28;99699.88;5005771;28;20524;-74
2023/08/31 01:01:27;;;;;;;0.10;0.10;;;;;;;14.01;85.23;99703.25;4973761;28;20489;-74
2023/08/31 01:04:16;;;;;;;0.20;0.20;;;;;;;13.96;85.79;99700.59;5006525;28;20051;-71
2023/08/31 01:06:53;;;;;;;0.15;0.15;;;;;;;13.92;85.44;99705.06;5006451;28;20577;-72
2023/08/31 01:09:27;;;;;;;0.15;0.15;;;;;;;13.90;86.01;99705.34;5004633;28;20116;-72
2023/08/31 01:11:59;;;;;;;0.10;0.10;;;;;;;13.85;86.51;99699.09;5005947;28;20602;-71
2023/08/31 01:14:32;;;;;;;0.10;0.10;;;;;;;13.82;86.45;99683.22;5009930;28;20037;-74
2023/08/31 01:17:02;;;;;;;0.10;0.10;;;;;;;13.80;86.63;99694.50;5008819;28;20431;-74
2023/08/31 01:19:44;;;;;;;0.20;0.20;;;;;;;13.76;86.90;99690.72;5006762;28;20058;-75
2023/08/31 01:22:17;;;;;;;0.10;0.10;;;;;;;13.73;87.04;99697.63;5004989;28;20671;-74
2023/08/31 01:24:45;;;;;;;0.10;0.10;;;;;;;13.71;87.63;99688.88;5005348;28;20073;-75
2023/08/31 01:27:12;;;;;;;0.10;0.10;;;;;;;13.65;87.75;99679.09;5006853;28;20053;-73
2023/08/31 01:29:39;;;;;;;0.20;0.20;;;;;;;13.67;88.06;99698.84;5006219;28;20481;-73
2023/08/31 01:32:07;;;;;;;0.10;0.10;;;;;;;13.65;88.04;99690.06;5007462;28;20042;-74
2023/08/31 01:34:34;;;;;;;0.20;0.20;;;;;;;13.66;88.14;99696.38;5005445;28;20042;-72
2023/08/31 01:37:08;;;;;;;0.10;0.10;;;;;;;13.65;88.11;99694.75;5003982;28;20054;-72
2023/08/31 01:39:43;;;;;;;0.10;0.10;;;;;;;13.50;88.35;99673.81;5004116;28;20065;-72
2023/08/31 01:42:13;;;;;;;0.10;0.10;;;;;;;13.61;88.32;99697.28;5004065;28;20175;-72
2023/08/31 01:44:41;;;;;;;0.10;0.10;;;;;;;13.44;88.80;99671.16;4998048;28;20535;-74
2023/08/31 01:47:08;;;;;;;0.10;0.10;;;;;;;13.60;89.01;99685.47;5005450;28;20404;-72
2023/08/31 01:49:38;;;;;;;0.10;0.10;;;;;;;13.49;88.58;99674.94;5006655;28;20052;-73
2023/08/31 01:52:04;;;;;;;0.10;0.10;;;;;;;13.58;88.77;99681.38;5000793;28;20808;-72
2023/08/31 01:54:31;;;;;;;0.10;0.10;;;;;;;13.57;88.59;99675.09;4985256;28;20187;-74
2023/08/31 01:56:57;;;;;;;0.10;0.10;;;;;;;13.61;88.68;99691.78;4971480;28;20124;-72
2023/08/31 01:59:26;;;;;;;0.10;0.10;;;;;;;13.62;88.76;99701.66;4989485;28;20058;-75
2023/08/31 02:01:52;;;;;;;0.20;0.20;;;;;;;13.61;88.83;99697.28;5005487;28;20045;-73
2023/08/31 02:04:18;;;;;;;0.10;0.10;;;;;;;13.59;88.61;99700.31;5004628;28;20064;-74
2023/08/31 02:06:44;;;;;;;0.10;0.10;;;;;;;13.54;89.09;99688.59;5005878;28;20057;-72
2023/08/31 02:09:12;;;;;;;0.10;0.10;;;;;;;13.51;89.19;99691.94;4973659;28;20050;-73
2023/08/31 02:11:39;;;;;;;0.10;0.10;;;;;;;13.47;89.78;99691.72;5005334;28;20622;-73
2023/08/31 02:14:05;;;;;;;0.10;0.10;;;;;;;13.49;89.78;99688.69;5002538;28;20149;-73
2023/08/31 02:16:33;;;;;;;0.10;0.10;;;;;;;13.50;89.59;99687.56;5006272;28;20069;-74
2023/08/31 02:18:59;;;;;;;0.10;0.10;;;;;;;13.45;89.47;99681.03;5003378;28;20046;-74
2023/08/31 02:21:26;;;;;;;0.10;0.10;;;;;;;13.45;89.56;99681.03;4985432;28;20147;-74
2023/08/31 02:23:52;;;;;;;0.10;0.10;;;;;;;13.42;89.55;99684.31;4968678;28;20050;-73
2023/08/31 02:26:21;;;;;;;0.10;0.10;;;;;;;13.39;89.62;99676.69;4998433;28;20085;-74
2023/08/31 02:28:47;;;;;;;0.10;0.10;;;;;;;13.34;89.86;99679.50;5003821;28;20157;-73
2023/08/31 02:31:14;;;;;;;0.10;0.10;;;;;;;13.28;89.92;99677.97;5002910;28;20038;-72
2023/08/31 02:33:41;;;;;;;0.10;0.10;;;;;;;13.30;90.09;99678.47;5004685;28;20424;-72
2023/08/31 02:36:07;;;;;;;;;;;;;;;13.25;90.58;99684.84;4988225;28;20475;-72
2023/08/31 02:38:34;;;;;;;0.10;0.10;;;;;;;13.23;90.27;99691.75;5005155;28;20020;-71
2023/08/31 02:41:00;;;;;;;0.10;0.10;;;;;;;13.19;90.49;99697.81;5003983;28;20178;-72
2023/08/31 02:43:28;;;;;;;0.20;0.20;;;;;;;13.20;90.62;99687.69;5002889;28;20560;-72
2023/08/31 02:46:00;;;;;;;0.10;0.10;;;;;;;13.22;90.60;99690.94;5002126;28;20444;-72
2023/08/31 02:48:27;;;;;;;0.10;0.10;;;;;;;13.23;90.37;99694.47;5007455;28;20049;-72
2023/08/31 02:50:56;;;;;;;0.10;0.10;;;;;;;13.24;90.69;99691.44;5005344;28;20053;-70
2023/08/31 02:53:22;;;;;;;0.10;0.10;;;;;;;13.23;90.80;99691.75;5002677;28;20073;-71
2023/08/31 02:55:50;;;;;;;0.10;0.10;;;;;;;13.25;90.80;99686.75;5005397;28;20050;-73
2023/08/31 02:58:17;;;;;;;0.20;0.20;;;;;;;13.25;90.70;99679.34;5000717;28;20584;-70
2023/08/31 03:00:45;;;;;;;0.10;0.10;;;;;;;13.29;90.61;99680.38;4987260;28;20189;-73
2023/08/31 03:03:12;;;;;;;0.10;0.10;;;;;;;13.29;90.34;99677.66;4990083;28;20038;-72
2023/08/31 03:05:39;;;;;;;0.10;0.10;;;;;;;13.33;90.39;99684.16;4999124;28;20149;-72
2023/08/31 03:08:06;;;;;;;0.10;0.10;;;;;;;13.34;90.38;99676.75;4983321;28;20448;-72
2023/08/31 03:10:33;;;;;;;0.10;0.10;;;;;;;13.42;90.25;99678.81;4961168;28;20059;-73
2023/08/31 03:12:59;;;;;;;0.10;0.10;;;;;;;13.46;89.98;99674.44;5003695;28;20153;-73
2023/08/31 03:15:26;;;;;;;0.10;0.10;;;;;;;13.51;89.58;99683.69;5002108;28;20128;-72
2023/08/31 03:17:52;;;;;;;0.10;0.10;;;;;;;13.57;89.54;99693.47;4987482;28;20050;-74
2023/08/31 03:20:18;;;;;;;0.10;0.10;;;;;;;13.61;89.28;99689.03;5003820;28;20090;-74
2023/08/31 03:22:44;;;;;;;0.10;0.10;;;;;;;13.65;88.94;99690.06;5006974;28;20140;-73
2023/08/31 03:25:12;;;;;;;0.10;0.10;;;;;;;13.70;88.99;99676.25;5003533;28;20120;-74
2023/08/31 03:27:38;;;;;;;;;;;;;;;13.74;88.53;99674.56;5006315;28;20050;-74
2023/08/31 03:30:06;;;;;;;0.17;0.17;;;;;;;13.77;87.83;99670.38;5004188;28;19925;-73
2023/08/31 03:32:33;;;;;;;0.10;0.10;;;;;;;13.83;88.07;99680.19;5003438;28;20062;-74
2023/08/31 03:34:59;;;;;;;0.20;0.20;;;;;;;13.88;88.00;99676.50;4986539;28;20060;-74
2023/08/31 03:37:25;;;;;;;0.10;0.10;;;;;;;13.80;87.70;99658.78;5005608;28;20312;-72
2023/08/31 03:39:52;;;;;;;0.20;0.20;;;;;;;13.99;88.09;99677.19;5005905;28;20050;-71
2023/08/31 03:42:19;;;;;;;0.20;0.20;;;;;;;14.06;87.38;99685.84;5004866;28;20053;-74
2023/08/31 03:44:46;;;;;;;0.10;0.10;;;;;;;14.15;87.02;99688.72;5002967;28;20136;-75
2023/08/31 03:47:12;;;;;;;0.10;0.10;;;;;;;14.20;86.45;99671.31;4970221;28;20561;-74
2023/08/31 03:49:39;;;;;;;0.10;0.10;;;;;;;14.26;86.23;99689.34;5002860;28;20057;-73
2023/08/31 03:52:07;;;;;;;0.10;0.10;;;;;;;14.32;85.65;99690.91;5001560;28;20038;-72
2023/08/31 03:54:33;;;;;;;0.10;0.10;;;;;;;14.36;85.52;99682.84;4969812;28;20088;-72
2023/08/31 03:57:00;;;;;;;0.20;0.20;;;;;;;14.47;85.02;99692.56;5007894;28;20567;-71
2023/08/31 03:59:28;;;;;;;0.20;0.20;;;;;;;14.55;84.66;99682.78;5007465;28;20085;-74
2023/08/31 04:01:54;;;;;;;0.10;0.10;;;;;;;14.60;84.34;99694.50;5008119;28;20054;-73
2023/08/31 04:04:21;;;;;;;0.20;0.20;;;;;;;14.67;84.13;99690.53;4990464;28;20104;-70
2023/08/31 04:06:48;;;;;;;0.20;0.20;;;;;;;14.80;83.51;99697.19;5008619;28;20054;-73
2023/08/31 04:09:14;;;;;;;0.20;0.20;;;;;;;14.94;82.80;99698.00;5007806;28;20049;-73
2023/08/31 04:11:40;;;;;;;0.13;0.13;;;;;;;15.11;82.23;99693.81;5005639;28;20088;-74
2023/08/31 04:14:06;;;;;;;0.20;0.20;;;;;;;15.31;81.28;99698.06;5007221;28;20080;-74
2023/08/31 04:16:34;;;;;;;0.20;0.20;;;;;;;15.55;80.20;99699.75;5009282;28;20144;-73
2023/08/31 04:19:00;;;;;;;0.20;0.20;;;;;;;15.77;79.03;99698.16;4975607;28;20050;-74
2023/08/31 04:21:26;;;;;;;0.20;0.20;;;;;;;15.91;78.38;99698.91;5009708;28;20053;-73
2023/08/31 04:23:53;;;;;;;0.20;0.20;;;;;;;16.04;77.76;99710.19;5005771;28;20567;-74
2023/08/31 04:26:20;;;;;;;0.20;0.20;;;;;;;16.14;77.18;99710.75;5007776;28;20144;-75
2023/08/31 04:28:46;;;;;;;0.20;0.20;;;;;;;16.20;76.40;99699.59;5009904;28;20050;-75
2023/08/31 04:31:12;;;;;;;0.43;0.30;;;;;;;16.33;76.26;99707.00;5008730;28;20112;-75
2023/08/31 04:33:40;;;;;;;0.30;0.30;;;;;;;16.40;76.20;99709.31;5009492;28;20145;-72
2023/08/31 04:36:06;;;;;;;0.20;0.20;;;;;;;16.51;75.70;99713.41;5007009;28;20042;-72
2023/08/31 04:38:34;;;;;;;0.20;0.20;;;;;;;16.67;75.05;99708.28;5008647;28;20078;-73
2023/08/31 04:41:02;;;;;;;0.20;0.20;;;;;;;16.74;74.55;99713.34;4988206;28;20057;-73
2023/08/31 04:43:28;;;;;;;0.20;0.20;;;;;;;16.83;74.16;99705.91;4988202;28;20050;-73
2023/08/31 04:45:55;;;;;;;0.20;0.20;;;;;;;16.97;73.69;99711.31;4990089;28;20104;-71
2023/08/31 04:48:21;;;;;;;0.22;0.22;;;;;;;17.04;73.26;99713.66;5002039;28;20056;-73
2023/08/31 04:50:49;;;;;;;0.20;0.20;;;;;;;17.14;72.63;99709.78;5006596;28;20056;-73
2023/08/31 04:53:15;;;;;;;0.20;0.20;;;;;;;17.17;72.92;99698.06;5005248;28;20049;-73
2023/08/31 04:55:42;;;;;;;0.20;0.20;;;;;;;17.27;72.39;99708.81;5007980;28;20054;-72
2023/08/31 04:58:08;;;;;;;0.20;0.20;;;;;;;17.38;72.44;99709.31;5007138;28;20181;-72
2023/08/31 05:00:34;;;;;;;0.20;0.20;;;;;;;17.41;71.66;99708.69;5009142;28;20042;-75
2023/08/31 05:03:00;;;;;;;0.20;0.20;;;;;;;17.42;71.53;99707.53;5004192;28;20046;-75
2023/08/31 05:05:26;;;;;;;0.20;0.20;;;;;;;17.43;71.12;99705.59;4986692;28;20089;-75
2023/08/31 05:07:54;;;;;;;0.20;0.20;;;;;;;17.43;71.41;99711.94;5004158;28;20073;-75
2023/08/31 05:10:20;;;;;;;;;;;;;;;17.49;71.14;99709.81;5005507;28;20042;-74
2023/08/31 05:12:46;;;;;;;0.20;0.20;;;;;;;17.42;70.92;99704.78;5001773;28;19926;-75
2023/08/31 05:15:12;;;;;;;0.25;0.25;;;;;;;17.43;71.10;99711.94;5005699;28;20046;-75
2023/08/31 05:17:38;;;;;;;0.30;0.30;;;;;;;17.54;70.83;99709.66;5008265;28;20064;-74
2023/08/31 05:20:08;;;;;;;0.30;0.30;;;;;;;17.74;70.47;99701.03;5008019;28;20567;-76
2023/08/31 05:22:34;;;;;;;0.30;0.30;;;;;;;17.72;70.10;99702.19;5005464;28;20085;-75
2023/08/31 05:25:04;;;;;;;0.20;0.20;;;;;;;17.60;70.81;99690.97;5005857;28;20141;-75
2023/08/31 05:27:30;;;;;;;0.20;0.20;;;;;;;17.36;71.54;99691.44;5001741;28;20089;-75
2023/08/31 05:29:56;;;;;;;0.30;0.30;;;;;;;17.35;72.30;99681.53;5005351;28;20057;-71
2023/08/31 05:32:22;;;;;;;0.20;0.20;;;;;;;17.40;71.91;99693.22;5004005;28;20043;-72
2023/08/31 05:34:49;;;;;;;0.30;0.30;;;;;;;17.46;71.58;99699.41;4997544;28;20495;-73
2023/08/31 05:37:15;;;;;;;0.30;0.30;;;;;;;17.51;71.71;99695.69;4996081;28;20049;-71
2023/08/31 05:39:41;;;;;;;0.30;0.30;;;;;;;17.51;71.20;99704.78;4982998;28;20544;-70
2023/08/31 05:42:09;;;;;;;0.25;0.25;;;;;;;17.61;70.61;99708.38;4994279;28;20050;-73
2023/08/31 05:44:35;;;;;;;0.35;0.32;;;;;;;17.63;70.86;99714.38;4970852;28;20070;-71
2023/08/31 05:47:01;;;;;;;0.30;0.30;;;;;;;17.70;70.29;99729.34;4988497;28;20054;-72
2023/08/31 05:49:27;;;;;;;0.20;0.20;;;;;;;17.86;69.87;99726.09;4985321;28;20327;-72
2023/08/31 05:51:54;;;;;;;0.30;0.30;;;;;;;18.01;69.56;99727.53;4999150;28;20465;-73
2023/08/31 05:54:21;;;;;;;0.20;0.20;;;;;;;18.26;68.72;99730.63;5004322;28;20501;-72
2023/08/31 05:56:47;;;;;;;0.30;0.30;;;;;;;18.43;68.00;99722.28;5003684;28;20049;-73
2023/08/31 05:59:15;;;;;;;0.25;0.25;;;;;;;18.60;67.26;99731.69;5006726;28;20141;-72
2023/08/31 06:01:41;;;;;;;0.25;0.25;;;;;;;18.77;66.43;99730.81;5001239;28;20092;-73
2023/08/31 06:04:08;;;;;;;0.30;0.30;;;;;;;19.00;65.79;99736.13;4998087;28;20046;-72
2023/08/31 06:06:35;;;;;;;0.30;0.30;;;;;;;19.16;65.00;99738.31;5005462;28;20572;-75
2023/08/31 06:09:01;;;;;;;0.30;0.30;;;;;;;19.26;64.26;99737.94;5003542;28;20045;-74
2023/08/31 06:11:27;;;;;;;0.30;0.30;;;;;;;19.36;64.45;99737.56;4999692;28;20112;-75
2023/08/31 06:13:54;;;;;;;0.30;0.30;;;;;;;19.50;63.90;99745.63;5003264;28;20081;-73
2023/08/31 06:16:22;;;;;;;0.30;0.30;;;;;;;19.52;63.20;99739.75;5004144;28;20092;-73
2023/08/31 06:18:49;;;;;;;0.30;0.30;;;;;;;19.67;63.02;99755.78;4970826;28;20049;-75
2023/08/31 06:21:15;;;;;;;0.30;0.30;;;;;;;19.86;62.97;99762.81;4987464;28;20046;-76
2023/08/31 06:23:42;;;;;;;0.30;0.30;;;;;;;20.12;62.02;99764.56;5005736;28;20104;-76
2023/08/31 06:26:08;;;;;;;0.30;0.30;;;;;;;20.43;61.23;99763.28;5005944;28;20050;-75
2023/08/31 06:28:35;;;;;;;0.30;0.30;;;;;;;20.58;60.12;99761.00;5004356;28;20084;-72
2023/08/31 06:31:02;;;;;;;0.30;0.30;;;;;;;20.79;59.39;99770.09;5006418;28;20284;-73
2023/08/31 06:33:30;;;;;;;0.30;0.30;;;;;;;20.99;58.64;99775.09;5007468;28;20370;-75
2023/08/31 06:35:57;;;;;;;0.30;0.30;;;;;;;20.99;58.37;99767.59;5006797;28;20042;-74
2023/08/31 06:38:23;;;;;;;0.30;0.30;;;;;;;21.00;58.18;99765.66;5007002;28;20045;-75
2023/08/31 06:40:58;;;;;;;0.30;0.30;;;;;;;21.06;57.23;99765.03;5006047;28;20099;-75
2023/08/31 06:43:26;;;;;;;0.30;0.30;;;;;;;20.93;57.56;99757.88;4998880;28;20140;-75
2023/08/31 06:45:52;;;;;;;0.30;0.30;;;;;;;20.87;57.79;99751.72;5006559;28;20773;-74
2023/08/31 06:48:19;;;;;;;0.30;0.30;;;;;;;20.97;57.73;99756.03;5003218;28;20049;-72
2023/08/31 06:50:47;;;;;;;0.30;0.30;;;;;;;21.06;57.42;99756.69;4968711;28;20057;-72
2023/08/31 06:53:13;;;;;;;0.30;0.30;;;;;;;21.04;57.33;99753.47;5002372;28;20060;-75
2023/08/31 06:55:39;;;;;;;0.30;0.30;;;;;;;21.19;57.04;99753.94;5000700;28;20085;-74
2023/08/31 06:58:06;;;;;;;0.30;0.30;;;;;;;21.39;56.76;99757.75;4987596;28;20521;-77
2023/08/31 07:00:32;;;;;;;0.30;0.30;;;;;;;21.60;56.18;99760.38;4988584;28;20850;-75
2023/08/31 07:02:58;;;;;;;0.30;0.30;;;;;;;21.71;56.10;99763.50;5002668;28;20630;-75
2023/08/31 07:05:25;;;;;;;0.30;0.30;;;;;;;21.77;56.01;99778.78;4978912;28;20041;-75
2023/08/31 07:07:54;;;;;;;0.30;0.30;;;;;;;21.71;56.05;99763.50;5006140;28;20050;-75
2023/08/31 07:10:20;;;;;;;0.30;0.30;;;;;;;21.88;55.76;99767.16;5006971;28;20505;-76
2023/08/31 07:12:47;;;;;;;0.30;0.30;;;;;;;22.00;55.60;99761.56;4988876;28;20046;-75
2023/08/31 07:15:13;;;;;;;0.32;0.32;;;;;;;22.12;54.90;99752.34;5008055;28;20506;-75
2023/08/31 07:17:41;;;;;;;0.30;0.30;;;;;;;22.23;54.39;99759.03;5008060;28;20789;-77
2023/08/31 07:20:09;;;;;;;0.40;0.40;;;;;;;22.55;53.94;99752.75;5004825;28;20120;-75
2023/08/31 07:22:36;;;;;;;0.30;0.30;;;;;;;22.84;52.97;99758.25;5003503;28;20045;-76
2023/08/31 07:25:05;;;;;;;0.40;0.40;;;;;;;23.04;52.26;99751.59;5007505;28;20057;-76
2023/08/31 07:27:32;;;;;;;0.30;0.30;;;;;;;23.11;51.84;99748.16;5004206;28;20131;-77
2023/08/31 07:30:03;;;;;;;0.30;0.30;;;;;;;23.16;51.50;99755.47;5006890;28;20053;-73
2023/08/31 07:32:33;;;;;;;0.30;0.30;;;;;;;23.16;50.97;99747.88;5006703;28;20046;-72
2023/08/31 07:35:00;;;;;;;0.30;0.30;;;;;;;23.24;51.41;99751.66;5008600;28;20528;-76
2023/08/31 07:37:26;;;;;;;0.30;0.30;;;;;;;23.37;51.15;99747.63;5009553;28;20136;-73
2023/08/31 07:39:53;;;;;;;0.30;0.30;;;;;;;23.45;50.70;99750.56;5005881;28;20120;-76
2023/08/31 07:42:21;;;;;;;0.30;0.30;;;;;;;23.78;50.01;99754.88;5000952;28;20037;-73
2023/08/31 07:44:47;;;;;;;0.40;0.40;;;;;;;24.23;48.95;99751.81;5024803;28;20045;-73
2023/08/31 07:47:13;;;;;;;0.40;0.40;;;;;;;24.29;48.66;99755.91;5027777;28;20060;-72
2023/08/31 07:49:39;;;;;;;0.40;0.40;;;;;;;24.26;48.48;99754.66;5024020;28;20161;-74
2023/08/31 07:52:05;;;;;;;0.40;0.40;;;;;;;24.28;48.53;99755.13;5005190;28;20093;-73
2023/08/31 07:54:32;;;;;;;0.40;0.40;;;;;;;24.58;47.77;99757.25;5002316;28;20100;-74
2023/08/31 07:56:58;;;;;;;0.40;0.40;;;;;;;24.69;47.12;99756.66;5009822;28;20042;-75
2023/08/31 07:59:26;;;;;;;0.40;0.40;;;;;;;24.60;46.92;99757.72;4994375;28;20150;-71
2023/08/31 08:01:53;;;;;;;0.40;0.40;;;;;;;24.64;47.16;99757.75;5010151;28;20560;-74
2023/08/31 08:04:19;;;;;;;0.40;0.40;;;;;;;24.38;47.78;99745.34;5009631;28;20049;-72
2023/08/31 08:06:50;;;;;;;0.40;0.40;;;;;;;24.64;46.98;99750.19;5011719;28;20042;-73
2023/08/31 08:09:17;;;;;;;0.40;0.40;;;;;;;24.56;46.50;99744.84;5006747;28;20042;-76
2023/08/31 08:11:43;;;;;;;0.40;0.40;;;;;;;24.69;46.18;99743.50;5011763;28;20050;-73
2023/08/31 08:14:10;;;;;;;0.40;0.40;;;;;;;24.90;45.30;99739.47;5027005;28;20509;-73
2023/08/31 08:16:37;;;;;;;0.40;0.40;;;;;;;25.04;44.94;99745.28;4988902;28;20097;-75
2023/08/31 08:19:07;;;;;;;0.40;0.40;;;;;;;25.22;44.51;99744.75;5005868;28;20054;-75
2023/08/31 08:21:33;;;;;;;0.50;0.50;;;;;;;25.18;43.85;99753.09;5028099;28;20140;-76
2023/08/31 08:23:59;;;;;;;0.40;0.40;;;;;;;24.97;44.71;99739.56;5019987;28;20516;-76
2023/08/31 08:26:32;;;;;;;0.40;0.40;;;;;;;25.33;44.26;99740.13;5005677;28;20517;-75
2023/08/31 08:28:59;;;;;;;0.40;0.40;;;;;;;25.68;43.35;99738.25;4984365;28;20125;-75
2023/08/31 08:31:25;;;;;;;0.40;0.40;;;;;;;25.80;43.62;99722.38;4987800;28;20050;-75
2023/08/31 08:33:53;;;;;;;0.40;0.40;;;;;;;26.08;43.18;99727.53;5004138;28;20145;-75
2023/08/31 08:36:20;;;;;;;0.40;0.40;;;;;;;26.16;43.03;99729.22;5007845;28;20069;-74
2023/08/31 08:38:47;;;;;;;0.40;0.40;;;;;;;26.10;41.76;99718.75;5006531;28;20038;-74
2023/08/31 08:41:14;;;;;;;0.43;0.43;;;;;;;25.79;42.73;99729.19;5004361;28;20057;-73
2023/08/31 08:43:48;;;;;;;0.40;0.40;;;;;;;25.94;42.62;99727.38;5008117;28;20304;-72
2023/08/31 08:46:17;;;;;;;0.43;0.43;;;;;;;26.56;41.38;99731.66;5007396;28;20057;-74
2023/08/31 08:48:46;;;;;;;0.40;0.40;;;;;;;26.88;40.37;99717.94;4974994;28;20496;-73
2023/08/31 08:51:14;;;;;;;0.40;0.40;;;;;;;26.87;40.63;99727.53;4975837;28;20046;-75
2023/08/31 08:53:43;;;;;;;0.50;0.50;;;;;;;27.22;39.86;99725.41;4994182;28;20041;-75
2023/08/31 08:56:09;;;;;;;0.40;0.40;;;;;;;27.36;39.18;99730.28;5008286;28;20049;-76
2023/08/31 08:58:36;;;;;;;0.50;0.50;;;;;;;27.36;39.48;99732.31;5026369;28;20049;-76
2023/08/31 09:01:03;;;;;;;0.50;0.50;;;;;;;27.70;39.01;99713.25;5012489;28;20132;-74
2023/08/31 09:03:31;;;;;;;0.50;0.50;;;;;;;28.16;38.85;99727.84;5028269;28;20072;-74
2023/08/31 09:06:01;;;;;;;0.50;0.50;;;;;;;28.28;38.32;99721.09;5014768;28;20046;-74
2023/08/31 09:08:29;;;;;;;0.60;0.60;;;;;;;28.40;37.54;99733.97;5003789;28;20046;-73
2023/08/31 09:10:59;;;;;;;0.50;0.50;;;;;;;28.48;36.83;99734.78;4991450;28;20042;-73
2023/08/31 09:13:28;;;;;;;0.50;0.50;;;;;;;28.38;36.55;99737.16;4981943;28;20584;-72
2023/08/31 09:15:56;;;;;;;0.50;0.50;;;;;;;28.49;36.08;99737.22;4979437;28;20503;-73
2023/08/31 09:18:25;;;;;;;0.60;0.60;;;;;;;28.28;37.16;99740.78;4998831;28;20049;-75
2023/08/31 09:20:51;;;;;;;0.50;0.50;;;;;;;27.83;36.79;99747.41;4999465;28;20042;-73
2023/08/31 09:23:18;;;;;;;0.60;0.60;;;;;;;27.80;36.92;99745.41;4988977;28;20639;-72
2023/08/31 09:25:50;;;;;;;0.50;0.50;;;;;;;27.72;37.11;99738.13;4988702;28;20050;-72
2023/08/31 09:28:19;;;;;;;0.70;0.70;;;;;;;27.78;37.48;99730.13;4987969;28;20308;-72
2023/08/31 09:30:47;;;;;;;0.60;0.60;;;;;;;27.82;36.64;99731.78;4995480;28;20153;-72
2023/08/31 09:33:16;;;;;;;0.60;0.60;;;;;;;27.76;36.62;99724.13;4972253;28;20136;-73
2023/08/31 09:35:49;;;;;;;0.60;0.60;;;;;;;28.05;35.55;99736.25;4991801;28;20528;-71
2023/08/31 09:38:16;;;;;;;0.60;0.60;;;;;;;27.84;36.59;99723.75;4996985;28;20042;-74
2023/08/31 09:40:42;;;;;;;0.60;0.60;;;;;;;28.07;35.49;99738.69;5000051;28;20088;-76
2023/08/31 09:43:10;;;;;;;0.60;0.60;;;;;;;28.14;34.47;99727.44;4988332;28;20100;-76
2023/08/31 09:45:38;;;;;;;0.60;0.60;;;;;;;27.89;34.99;99737.41;5002523;28;20061;-75
2023/08/31 09:48:05;;;;;;;0.70;0.70;;;;;;;28.48;34.65;99737.59;5005013;28;20049;-74
2023/08/31 09:50:32;;;;;;;;;;;;;;;28.97;34.21;99741.66;5003030;28;20061;-75
2023/08/31 09:53:03;;;;;;;0.60;0.60;;;;;;;29.15;33.73;99740.84;4982894;28;20013;-76
2023/08/31 09:55:31;;;;;;;0.70;0.70;;;;;;;29.36;33.07;99742.03;4986890;28;20052;-76
2023/08/31 09:57:59;;;;;;;0.60;0.60;;;;;;;29.60;32.53;99734.75;4998689;28;20054;-72
2023/08/31 10:00:28;;;;;;;0.70;0.70;;;;;;;29.83;31.91;99750.34;4999308;28;20045;-74
2023/08/31 10:02:57;;;;;;;0.60;0.60;;;;;;;30.07;32.04;99737.38;4996670;28;20044;-75
2023/08/31 10:05:24;;;;;;;0.70;0.70;;;;;;;30.56;31.22;99736.69;5005581;28;20057;-74
2023/08/31 10:07:51;;;;;;;0.60;0.60;;;;;;;30.92;31.14;99722.34;5008858;28;20053;-71
2023/08/31 10:10:19;;;;;;;0.60;0.60;;;;;;;31.34;30.02;99728.00;4991783;28;20069;-76
2023/08/31 10:12:47;;;;;;;0.70;0.70;;;;;;;31.64;30.00;99726.47;5000516;28;20077;-77
2023/08/31 10:15:15;;;;;;;0.60;0.60;;;;;;;32.21;29.33;99737.47;5007552;28;20046;-74
2023/08/31 10:17:43;;;;;;;0.60;0.60;;;;;;;32.07;29.69;99725.13;5005974;28;20046;-76
2023/08/31 10:20:11;;;;;;;0.60;0.60;;;;;;;32.04;29.22;99733.66;5005549;28;20050;-75
2023/08/31 10:22:38;;;;;;;0.60;0.60;;;;;;;31.98;29.38;99733.31;5000229;28;20050;-74
2023/08/31 10:25:06;;;;;;;0.60;0.60;;;;;;;31.68;29.45;99734.88;4980808;28;20054;-73
2023/08/31 10:27:37;;;;;;;0.70;0.60;;;;;;;31.96;28.80;99736.59;5004174;28;20061;-75
2023/08/31 10:30:25;;;;;;;0.70;0.70;;;;;;;31.20;30.12;99717.63;5006885;28;20068;-76
2023/08/31 10:33:23;;;;;;;0.70;0.70;;;;;;;31.86;29.38;99723.38;4987834;28;20046;-76
2023/08/31 10:35:51;;;;;;;0.60;0.60;;;;;;;32.27;28.37;99715.16;4977490;28;20069;-76
2023/08/31 10:38:25;;;;;;;0.68;0.68;;;;;;;32.57;28.10;99707.88;5001875;28;20050;-74
2023/08/31 10:41:20;;;;;;;0.70;0.70;;;;;;;32.88;28.04;99714.19;5007868;28;20046;-76
2023/08/31 10:43:51;;;;;;;0.80;0.80;;;;;;;33.10;27.22;99720.31;4990689;28;20049;-76
2023/08/31 10:46:28;;;;;;;0.80;0.80;;;;;;;33.01;27.76;99714.41;5004527;28;20054;-75
2023/08/31 10:48:57;;;;;;;0.80;0.80;;;;;;;33.19;27.32;99714.09;5004268;28;20085;-75
2023/08/31 10:51:25;;;;;;;0.80;0.80;;;;;;;33.39;27.19;99716.13;5001526;28;20074;-75
2023/08/31 10:53:52;;;;;;;0.80;0.80;;;;;;;33.43;26.83;99716.88;5002574;28;20042;-75
2023/08/31 10:56:18;;;;;;;0.90;0.90;;;;;;;33.77;26.75;99721.47;5002660;28;20132;-76
2023/08/31 10:58:58;;;;;;;1.00;1.00;;;;;;;34.08;26.31;99714.75;5002618;28;20042;-74
2023/08/31 11:01:53;;;;;;;1.00;1.00;;;;;;;33.88;26.81;99723.28;4979099;28;20070;-76
2023/08/31 11:04:22;;;;;;;0.90;0.90;;;;;;;33.68;26.22;99711.97;4969052;28;20042;-77
2023/08/31 11:06:48;;;;;;;1.10;1.10;;;;;;;33.70;26.52;99710.28;4992176;28;20073;-76
2023/08/31 11:09:20;;;;;;;1.08;1.08;;;;;;;34.17;25.70;99714.16;4993385;28;20050;-76
2023/08/31 11:11:47;;;;;;;1.02;1.02;;;;;;;34.38;25.63;99712.84;4998573;28;20046;-76
2023/08/31 11:14:13;;;;;;;1.10;1.10;;;;;;;34.02;25.78;99711.63;4997778;28;20537;-75
2023/08/31 11:16:40;;;;;;;1.10;1.10;;;;;;;33.56;26.42;99697.22;4997782;28;20089;-77
2023/08/31 11:19:06;;;;;;;1.10;1.10;;;;;;;33.83;26.36;99706.78;5003413;28;20061;-77
2023/08/31 11:21:36;;;;;;;;;;;;;;;34.38;26.08;99690.16;5008972;28;20056;-76
2023/08/31 11:24:02;;;;;;;1.20;1.15;;;;;;;34.80;25.52;99695.22;5008366;28;19980;-76
2023/08/31 11:26:31;;;;;;;1.25;1.20;;;;;;;34.67;25.57;99691.53;5007505;28;20061;-76
2023/08/31 11:28:58;;;;;;;1.30;1.20;;;;;;;35.16;24.98;99679.31;5006976;28;20066;-77
2023/08/31 11:31:24;;;;;;;1.30;1.20;;;;;;;35.35;24.59;99686.09;5008546;28;20398;-76
2023/08/31 11:33:50;;;;;;;1.30;1.20;;;;;;;35.36;24.70;99682.00;5009357;28;20109;-76
2023/08/31 11:36:19;;;;;;;1.30;1.20;;;;;;;35.65;24.22;99686.06;5008620;28;20041;-76
2023/08/31 11:38:48;;;;;;;1.30;1.20;;;;;;;35.68;23.95;99683.13;5021888;28;20524;-75